sensor_id;sensor_type;location;lat;lon;timestamp;P1;durP1;ratioP1;P2;durP2;ratioP2
56911;SDS011;42800;53.928;27.662;2023-01-19T00:01:22;9.57;;;6.68;;
56911;SDS011;42800;53.928;27.662;2023-01-19T00:03:49;12.43;;;7.72;;
56911;SDS011;42800;53.928;27.662;2023-01-19T00:06:15;13.85;;;8.85;;
56911;SDS011;42800;53.928;27.662;2023-01-19T00:08:42;13.32;;;9.15;;
56911;SDS011;42800;53.928;27.662;2023-01-19T00:11:10;14.15;;;9.20;;
56911;SDS011;42800;53.928;27.662;2023-01-19T00:13:36;18.15;;;10.50;;
56911;SDS011;42800;53.928;27.662;2023-01-19T00:16:04;14.43;;;9.77;;
56911;SDS011;42800;53.928;27.662;2023-01-19T00:18:31;15.45;;;10.45;;
56911;SDS011;42800;53.928;27.662;2023-01-19T00:20:57;13.68;;;8.52;;
56911;SDS011;42800;53.928;27.662;2023-01-19T00:23:24;12.98;;;8.05;;
56911;SDS011;42800;53.928;27.662;2023-01-19T00:25:50;13.15;;;8.65;;
56911;SDS011;42800;53.928;27.662;2023-01-19T00:28:17;13.95;;;8.75;;
56911;SDS011;42800;53.928;27.662;2023-01-19T00:30:43;11.73;;;7.20;;
56911;SDS011;42800;53.928;27.662;2023-01-19T00:33:10;9.68;;;6.93;;
56911;SDS011;42800;53.928;27.662;2023-01-19T00:35:38;7.55;;;5.38;;
56911;SDS011;42800;53.928;27.662;2023-01-19T00:38:06;9.73;;;5.72;;
56911;SDS011;42800;53.928;27.662;2023-01-19T00:40:32;9.48;;;6.30;;
56911;SDS011;42800;53.928;27.662;2023-01-19T00:42:59;10.48;;;6.97;;
56911;SDS011;42800;53.928;27.662;2023-01-19T00:45:25;12.95;;;7.45;;
56911;SDS011;42800;53.928;27.662;2023-01-19T00:47:51;10.63;;;6.43;;
56911;SDS011;42800;53.928;27.662;2023-01-19T00:50:21;8.65;;;6.32;;
56911;SDS011;42800;53.928;27.662;2023-01-19T00:52:48;10.07;;;6.32;;
56911;SDS011;42800;53.928;27.662;2023-01-19T00:55:16;11.32;;;7.72;;
56911;SDS011;42800;53.928;27.662;2023-01-19T00:57:43;10.52;;;6.70;;
56911;SDS011;42800;53.928;27.662;2023-01-19T01:00:10;11.00;;;6.50;;
56911;SDS011;42800;53.928;27.662;2023-01-19T01:02:38;13.70;;;6.00;;
56911;SDS011;42800;53.928;27.662;2023-01-19T01:05:04;9.93;;;6.72;;
56911;SDS011;42800;53.928;27.662;2023-01-19T01:07:32;10.30;;;6.53;;
56911;SDS011;42800;53.928;27.662;2023-01-19T01:10:05;12.15;;;7.22;;
56911;SDS011;42800;53.928;27.662;2023-01-19T01:12:33;9.57;;;6.32;;
56911;SDS011;42800;53.928;27.662;2023-01-19T01:14:59;12.02;;;6.72;;
56911;SDS011;42800;53.928;27.662;2023-01-19T01:17:26;8.18;;;5.18;;
56911;SDS011;42800;53.928;27.662;2023-01-19T01:19:52;11.38;;;7.20;;
56911;SDS011;42800;53.928;27.662;2023-01-19T01:22:18;10.75;;;6.88;;
56911;SDS011;42800;53.928;27.662;2023-01-19T01:24:45;8.40;;;4.88;;
56911;SDS011;42800;53.928;27.662;2023-01-19T01:27:11;7.68;;;5.05;;
56911;SDS011;42800;53.928;27.662;2023-01-19T01:29:37;8.73;;;5.13;;
56911;SDS011;42800;53.928;27.662;2023-01-19T01:32:05;9.32;;;6.65;;
56911;SDS011;42800;53.928;27.662;2023-01-19T01:34:31;8.40;;;5.38;;
56911;SDS011;42800;53.928;27.662;2023-01-19T01:36:57;10.85;;;6.35;;
56911;SDS011;42800;53.928;27.662;2023-01-19T01:39:24;9.90;;;6.60;;
56911;SDS011;42800;53.928;27.662;2023-01-19T01:41:51;8.88;;;6.25;;
56911;SDS011;42800;53.928;27.662;2023-01-19T01:47:14;10.88;;;6.70;;
56911;SDS011;42800;53.928;27.662;2023-01-19T01:49:42;9.00;;;6.00;;
56911;SDS011;42800;53.928;27.662;2023-01-19T01:52:09;12.23;;;7.03;;
56911;SDS011;42800;53.928;27.662;2023-01-19T01:54:36;9.85;;;6.55;;
56911;SDS011;42800;53.928;27.662;2023-01-19T01:57:04;11.75;;;7.30;;
56911;SDS011;42800;53.928;27.662;2023-01-19T01:59:39;12.47;;;6.97;;
56911;SDS011;42800;53.928;27.662;2023-01-19T02:02:08;12.52;;;7.15;;
56911;SDS011;42800;53.928;27.662;2023-01-19T02:04:56;15.32;;;7.70;;
56911;SDS011;42800;53.928;27.662;2023-01-19T02:07:29;14.43;;;8.20;;
56911;SDS011;42800;53.928;27.662;2023-01-19T02:10:21;8.35;;;5.57;;
56911;SDS011;42800;53.928;27.662;2023-01-19T02:15:45;10.88;;;6.68;;
56911;SDS011;42800;53.928;27.662;2023-01-19T02:18:12;11.13;;;6.88;;
56911;SDS011;42800;53.928;27.662;2023-01-19T02:20:38;10.98;;;6.78;;
56911;SDS011;42800;53.928;27.662;2023-01-19T02:23:12;11.93;;;6.35;;
56911;SDS011;42800;53.928;27.662;2023-01-19T02:25:43;12.05;;;7.43;;
56911;SDS011;42800;53.928;27.662;2023-01-19T02:28:11;13.10;;;7.03;;
56911;SDS011;42800;53.928;27.662;2023-01-19T02:30:39;12.30;;;7.35;;
56911;SDS011;42800;53.928;27.662;2023-01-19T02:33:06;11.00;;;7.22;;
56911;SDS011;42800;53.928;27.662;2023-01-19T02:35:32;8.95;;;6.07;;
56911;SDS011;42800;53.928;27.662;2023-01-19T02:38:01;9.75;;;5.80;;
56911;SDS011;42800;53.928;27.662;2023-01-19T02:40:29;11.45;;;6.82;;
56911;SDS011;42800;53.928;27.662;2023-01-19T02:42:56;8.45;;;4.63;;
56911;SDS011;42800;53.928;27.662;2023-01-19T02:45:24;10.30;;;6.45;;
56911;SDS011;42800;53.928;27.662;2023-01-19T02:47:52;9.35;;;6.32;;
56911;SDS011;42800;53.928;27.662;2023-01-19T02:56:17;7.78;;;5.85;;
56911;SDS011;42800;53.928;27.662;2023-01-19T02:58:58;9.23;;;5.63;;
56911;SDS011;42800;53.928;27.662;2023-01-19T03:01:30;7.47;;;5.25;;
56911;SDS011;42800;53.928;27.662;2023-01-19T03:04:07;8.32;;;4.97;;
56911;SDS011;42800;53.928;27.662;2023-01-19T03:06:40;7.13;;;5.25;;
56911;SDS011;42800;53.928;27.662;2023-01-19T03:09:13;6.80;;;4.57;;
56911;SDS011;42800;53.928;27.662;2023-01-19T03:11:46;4.50;;;3.72;;
56911;SDS011;42800;53.928;27.662;2023-01-19T03:14:20;6.43;;;4.60;;
56911;SDS011;42800;53.928;27.662;2023-01-19T03:16:50;5.22;;;3.55;;
56911;SDS011;42800;53.928;27.662;2023-01-19T03:19:20;4.75;;;3.20;;
56911;SDS011;42800;53.928;27.662;2023-01-19T03:21:53;4.38;;;3.13;;
56911;SDS011;42800;53.928;27.662;2023-01-19T03:24:22;4.22;;;3.00;;
56911;SDS011;42800;53.928;27.662;2023-01-19T03:26:52;4.20;;;2.75;;
56911;SDS011;42800;53.928;27.662;2023-01-19T03:29:23;4.97;;;3.28;;
56911;SDS011;42800;53.928;27.662;2023-01-19T03:31:55;5.63;;;3.42;;
56911;SDS011;42800;53.928;27.662;2023-01-19T03:34:26;4.10;;;3.22;;
56911;SDS011;42800;53.928;27.662;2023-01-19T03:36:54;4.93;;;2.88;;
56911;SDS011;42800;53.928;27.662;2023-01-19T03:39:26;4.32;;;2.60;;
56911;SDS011;42800;53.928;27.662;2023-01-19T03:41:54;5.03;;;3.80;;
56911;SDS011;42800;53.928;27.662;2023-01-19T03:44:24;5.00;;;3.40;;
56911;SDS011;42800;53.928;27.662;2023-01-19T03:46:53;3.53;;;2.92;;
56911;SDS011;42800;53.928;27.662;2023-01-19T03:49:21;3.97;;;3.03;;
56911;SDS011;42800;53.928;27.662;2023-01-19T03:51:47;5.85;;;3.40;;
56911;SDS011;42800;53.928;27.662;2023-01-19T03:54:14;5.82;;;3.38;;
56911;SDS011;42800;53.928;27.662;2023-01-19T03:56:40;4.47;;;3.40;;
56911;SDS011;42800;53.928;27.662;2023-01-19T03:59:07;3.95;;;3.13;;
56911;SDS011;42800;53.928;27.662;2023-01-19T04:01:34;5.65;;;3.33;;
56911;SDS011;42800;53.928;27.662;2023-01-19T04:04:00;8.23;;;3.08;;
56911;SDS011;42800;53.928;27.662;2023-01-19T04:06:27;4.60;;;3.22;;
56911;SDS011;42800;53.928;27.662;2023-01-19T04:08:53;5.25;;;3.22;;
56911;SDS011;42800;53.928;27.662;2023-01-19T04:11:19;4.90;;;3.58;;
56911;SDS011;42800;53.928;27.662;2023-01-19T04:13:46;7.28;;;4.03;;
56911;SDS011;42800;53.928;27.662;2023-01-19T04:16:12;5.45;;;3.60;;
56911;SDS011;42800;53.928;27.662;2023-01-19T04:18:39;4.60;;;3.30;;
56911;SDS011;42800;53.928;27.662;2023-01-19T04:21:06;7.38;;;3.88;;
56911;SDS011;42800;53.928;27.662;2023-01-19T04:23:33;5.93;;;4.05;;
56911;SDS011;42800;53.928;27.662;2023-01-19T04:26:00;7.78;;;4.38;;
56911;SDS011;42800;53.928;27.662;2023-01-19T04:28:28;6.55;;;4.22;;
56911;SDS011;42800;53.928;27.662;2023-01-19T04:30:54;5.45;;;3.83;;
56911;SDS011;42800;53.928;27.662;2023-01-19T04:33:21;5.45;;;4.05;;
56911;SDS011;42800;53.928;27.662;2023-01-19T04:35:49;6.65;;;4.32;;
56911;SDS011;42800;53.928;27.662;2023-01-19T04:38:17;6.38;;;4.03;;
56911;SDS011;42800;53.928;27.662;2023-01-19T04:40:43;5.88;;;4.38;;
56911;SDS011;42800;53.928;27.662;2023-01-19T04:43:10;7.47;;;5.00;;
56911;SDS011;42800;53.928;27.662;2023-01-19T04:45:36;5.13;;;3.90;;
56911;SDS011;42800;53.928;27.662;2023-01-19T04:48:03;8.32;;;4.47;;
56911;SDS011;42800;53.928;27.662;2023-01-19T04:50:30;7.65;;;4.85;;
56911;SDS011;42800;53.928;27.662;2023-01-19T04:52:57;8.85;;;4.72;;
56911;SDS011;42800;53.928;27.662;2023-01-19T04:55:23;7.75;;;4.80;;
56911;SDS011;42800;53.928;27.662;2023-01-19T04:57:50;7.63;;;4.90;;
56911;SDS011;42800;53.928;27.662;2023-01-19T05:00:16;7.07;;;4.68;;
56911;SDS011;42800;53.928;27.662;2023-01-19T05:02:43;7.80;;;4.22;;
56911;SDS011;42800;53.928;27.662;2023-01-19T05:05:09;8.95;;;5.25;;
56911;SDS011;42800;53.928;27.662;2023-01-19T05:07:36;7.45;;;4.57;;
56911;SDS011;42800;53.928;27.662;2023-01-19T05:10:04;6.20;;;4.40;;
56911;SDS011;42800;53.928;27.662;2023-01-19T05:12:31;7.72;;;5.45;;
56911;SDS011;42800;53.928;27.662;2023-01-19T05:14:58;7.40;;;4.65;;
56911;SDS011;42800;53.928;27.662;2023-01-19T05:17:25;8.80;;;4.65;;
56911;SDS011;42800;53.928;27.662;2023-01-19T05:19:59;7.15;;;4.15;;
56911;SDS011;42800;53.928;27.662;2023-01-19T05:22:27;8.13;;;4.65;;
56911;SDS011;42800;53.928;27.662;2023-01-19T05:24:54;8.68;;;4.90;;
56911;SDS011;42800;53.928;27.662;2023-01-19T05:27:20;6.57;;;4.15;;
56911;SDS011;42800;53.928;27.662;2023-01-19T05:29:46;5.30;;;4.20;;
56911;SDS011;42800;53.928;27.662;2023-01-19T05:32:12;6.07;;;3.97;;
56911;SDS011;42800;53.928;27.662;2023-01-19T05:34:38;7.30;;;4.55;;
56911;SDS011;42800;53.928;27.662;2023-01-19T05:37:05;6.57;;;4.20;;
56911;SDS011;42800;53.928;27.662;2023-01-19T05:39:31;5.45;;;4.05;;
56911;SDS011;42800;53.928;27.662;2023-01-19T05:41:58;5.53;;;3.78;;
56911;SDS011;42800;53.928;27.662;2023-01-19T05:44:24;7.03;;;4.00;;
56911;SDS011;42800;53.928;27.662;2023-01-19T05:46:50;5.43;;;3.97;;
56911;SDS011;42800;53.928;27.662;2023-01-19T05:49:17;6.72;;;3.72;;
56911;SDS011;42800;53.928;27.662;2023-01-19T05:51:43;5.20;;;3.92;;
56911;SDS011;42800;53.928;27.662;2023-01-19T05:54:11;4.78;;;3.50;;
56911;SDS011;42800;53.928;27.662;2023-01-19T05:56:39;6.93;;;4.45;;
56911;SDS011;42800;53.928;27.662;2023-01-19T05:59:05;7.47;;;4.10;;
56911;SDS011;42800;53.928;27.662;2023-01-19T06:01:32;5.88;;;3.65;;
56911;SDS011;42800;53.928;27.662;2023-01-19T06:03:59;6.70;;;4.15;;
56911;SDS011;42800;53.928;27.662;2023-01-19T06:06:25;6.90;;;4.45;;
56911;SDS011;42800;53.928;27.662;2023-01-19T06:08:52;6.40;;;4.85;;
56911;SDS011;42800;53.928;27.662;2023-01-19T06:11:18;6.55;;;4.65;;
56911;SDS011;42800;53.928;27.662;2023-01-19T06:13:46;7.13;;;4.60;;
56911;SDS011;42800;53.928;27.662;2023-01-19T06:16:12;7.85;;;5.38;;
56911;SDS011;42800;53.928;27.662;2023-01-19T06:18:38;8.43;;;4.93;;
56911;SDS011;42800;53.928;27.662;2023-01-19T06:21:05;6.35;;;4.50;;
56911;SDS011;42800;53.928;27.662;2023-01-19T06:23:33;9.73;;;5.47;;
56911;SDS011;42800;53.928;27.662;2023-01-19T06:26:00;9.18;;;5.40;;
56911;SDS011;42800;53.928;27.662;2023-01-19T06:28:28;8.77;;;5.32;;
56911;SDS011;42800;53.928;27.662;2023-01-19T06:30:55;8.32;;;4.82;;
56911;SDS011;42800;53.928;27.662;2023-01-19T06:33:21;11.52;;;6.15;;
56911;SDS011;42800;53.928;27.662;2023-01-19T06:35:49;11.77;;;5.53;;
56911;SDS011;42800;53.928;27.662;2023-01-19T06:38:16;12.20;;;5.65;;
56911;SDS011;42800;53.928;27.662;2023-01-19T06:40:43;8.63;;;5.53;;
56911;SDS011;42800;53.928;27.662;2023-01-19T06:43:09;7.75;;;4.97;;
56911;SDS011;42800;53.928;27.662;2023-01-19T06:45:37;8.88;;;4.65;;
56911;SDS011;42800;53.928;27.662;2023-01-19T06:48:04;10.52;;;5.75;;
56911;SDS011;42800;53.928;27.662;2023-01-19T06:50:31;11.82;;;5.38;;
56911;SDS011;42800;53.928;27.662;2023-01-19T06:52:57;10.55;;;6.10;;
56911;SDS011;42800;53.928;27.662;2023-01-19T06:55:23;9.02;;;5.70;;
56911;SDS011;42800;53.928;27.662;2023-01-19T06:57:54;8.85;;;5.45;;
56911;SDS011;42800;53.928;27.662;2023-01-19T07:00:21;8.25;;;5.25;;
56911;SDS011;42800;53.928;27.662;2023-01-19T07:02:49;9.73;;;5.32;;
56911;SDS011;42800;53.928;27.662;2023-01-19T07:05:15;9.90;;;6.10;;
56911;SDS011;42800;53.928;27.662;2023-01-19T07:07:41;9.38;;;5.65;;
56911;SDS011;42800;53.928;27.662;2023-01-19T07:10:09;10.02;;;5.68;;
56911;SDS011;42800;53.928;27.662;2023-01-19T07:12:36;21.45;;;9.52;;
56911;SDS011;42800;53.928;27.662;2023-01-19T07:15:03;10.45;;;6.20;;
56911;SDS011;42800;53.928;27.662;2023-01-19T07:17:30;10.85;;;6.65;;
56911;SDS011;42800;53.928;27.662;2023-01-19T07:19:57;11.27;;;5.60;;
56911;SDS011;42800;53.928;27.662;2023-01-19T07:22:23;7.63;;;5.32;;
56911;SDS011;42800;53.928;27.662;2023-01-19T07:24:49;10.45;;;5.40;;
56911;SDS011;42800;53.928;27.662;2023-01-19T07:27:15;9.05;;;5.10;;
56911;SDS011;42800;53.928;27.662;2023-01-19T07:29:41;9.43;;;5.47;;
56911;SDS011;42800;53.928;27.662;2023-01-19T07:32:08;9.98;;;4.43;;
56911;SDS011;42800;53.928;27.662;2023-01-19T07:34:34;8.02;;;5.13;;
56911;SDS011;42800;53.928;27.662;2023-01-19T07:37:01;9.40;;;5.07;;
56911;SDS011;42800;53.928;27.662;2023-01-19T07:39:28;9.02;;;5.63;;
56911;SDS011;42800;53.928;27.662;2023-01-19T07:41:56;9.07;;;5.45;;
56911;SDS011;42800;53.928;27.662;2023-01-19T07:44:22;12.43;;;6.03;;
56911;SDS011;42800;53.928;27.662;2023-01-19T07:46:48;9.00;;;5.78;;
56911;SDS011;42800;53.928;27.662;2023-01-19T07:49:15;7.32;;;4.80;;
56911;SDS011;42800;53.928;27.662;2023-01-19T07:51:41;9.88;;;5.78;;
56911;SDS011;42800;53.928;27.662;2023-01-19T07:54:09;13.35;;;6.95;;
56911;SDS011;42800;53.928;27.662;2023-01-19T07:56:35;9.07;;;4.95;;
56911;SDS011;42800;53.928;27.662;2023-01-19T07:59:01;10.00;;;5.57;;
56911;SDS011;42800;53.928;27.662;2023-01-19T08:01:27;9.27;;;5.38;;
56911;SDS011;42800;53.928;27.662;2023-01-19T08:03:54;8.90;;;5.25;;
56911;SDS011;42800;53.928;27.662;2023-01-19T08:06:21;11.52;;;6.13;;
56911;SDS011;42800;53.928;27.662;2023-01-19T08:08:49;10.70;;;6.63;;
56911;SDS011;42800;53.928;27.662;2023-01-19T08:11:16;8.15;;;5.75;;
56911;SDS011;42800;53.928;27.662;2023-01-19T08:13:42;8.23;;;5.97;;
56911;SDS011;42800;53.928;27.662;2023-01-19T08:16:08;10.88;;;6.32;;
56911;SDS011;42800;53.928;27.662;2023-01-19T08:18:35;14.35;;;8.32;;
56911;SDS011;42800;53.928;27.662;2023-01-19T08:21:01;10.45;;;6.85;;
56911;SDS011;42800;53.928;27.662;2023-01-19T08:23:27;12.48;;;6.80;;
56911;SDS011;42800;53.928;27.662;2023-01-19T08:25:53;14.95;;;7.90;;
56911;SDS011;42800;53.928;27.662;2023-01-19T08:28:20;11.80;;;6.53;;
56911;SDS011;42800;53.928;27.662;2023-01-19T08:30:47;12.82;;;5.57;;
56911;SDS011;42800;53.928;27.662;2023-01-19T08:33:18;12.48;;;7.38;;
56911;SDS011;42800;53.928;27.662;2023-01-19T08:35:46;25.02;;;9.65;;
56911;SDS011;42800;53.928;27.662;2023-01-19T08:38:13;16.95;;;9.68;;
56911;SDS011;42800;53.928;27.662;2023-01-19T08:40:41;19.52;;;9.27;;
56911;SDS011;42800;53.928;27.662;2023-01-19T08:43:08;20.33;;;10.57;;
56911;SDS011;42800;53.928;27.662;2023-01-19T08:45:37;22.52;;;11.27;;
56911;SDS011;42800;53.928;27.662;2023-01-19T08:48:05;26.88;;;11.95;;
56911;SDS011;42800;53.928;27.662;2023-01-19T08:50:32;28.08;;;13.40;;
56911;SDS011;42800;53.928;27.662;2023-01-19T08:53:00;26.67;;;12.40;;
56911;SDS011;42800;53.928;27.662;2023-01-19T08:55:27;30.73;;;11.20;;
56911;SDS011;42800;53.928;27.662;2023-01-19T08:57:55;21.38;;;11.43;;
56911;SDS011;42800;53.928;27.662;2023-01-19T09:00:23;26.10;;;12.93;;
56911;SDS011;42800;53.928;27.662;2023-01-19T09:02:52;28.13;;;13.45;;
56911;SDS011;42800;53.928;27.662;2023-01-19T09:05:18;25.00;;;12.13;;
56911;SDS011;42800;53.928;27.662;2023-01-19T09:07:45;19.67;;;10.60;;
56911;SDS011;42800;53.928;27.662;2023-01-19T09:10:12;29.25;;;13.60;;
56911;SDS011;42800;53.928;27.662;2023-01-19T09:12:39;20.02;;;10.13;;
56911;SDS011;42800;53.928;27.662;2023-01-19T09:15:06;24.83;;;9.43;;
56911;SDS011;42800;53.928;27.662;2023-01-19T09:17:34;18.92;;;9.82;;
56911;SDS011;42800;53.928;27.662;2023-01-19T09:20:01;28.90;;;11.48;;
56911;SDS011;42800;53.928;27.662;2023-01-19T09:22:30;18.15;;;11.27;;
56911;SDS011;42800;53.928;27.662;2023-01-19T09:24:56;18.30;;;9.90;;
56911;SDS011;42800;53.928;27.662;2023-01-19T09:27:23;24.38;;;11.05;;
56911;SDS011;42800;53.928;27.662;2023-01-19T09:29:49;23.17;;;11.02;;
56911;SDS011;42800;53.928;27.662;2023-01-19T09:32:18;19.67;;;10.25;;
56911;SDS011;42800;53.928;27.662;2023-01-19T09:34:45;26.15;;;12.50;;
56911;SDS011;42800;53.928;27.662;2023-01-19T09:37:13;25.70;;;12.27;;
56911;SDS011;42800;53.928;27.662;2023-01-19T09:39:40;23.55;;;13.18;;
56911;SDS011;42800;53.928;27.662;2023-01-19T09:42:07;29.85;;;13.45;;
56911;SDS011;42800;53.928;27.662;2023-01-19T09:44:41;22.77;;;12.63;;
56911;SDS011;42800;53.928;27.662;2023-01-19T09:47:12;26.48;;;11.20;;
56911;SDS011;42800;53.928;27.662;2023-01-19T09:49:40;25.80;;;11.95;;
56911;SDS011;42800;53.928;27.662;2023-01-19T09:52:10;29.67;;;13.05;;
56911;SDS011;42800;53.928;27.662;2023-01-19T09:54:39;41.60;;;18.38;;
56911;SDS011;42800;53.928;27.662;2023-01-19T09:57:12;17.95;;;10.45;;
56911;SDS011;42800;53.928;27.662;2023-01-19T09:59:38;25.20;;;11.25;;
56911;SDS011;42800;53.928;27.662;2023-01-19T10:02:15;23.48;;;11.63;;
56911;SDS011;42800;53.928;27.662;2023-01-19T10:04:51;18.90;;;9.30;;
56911;SDS011;42800;53.928;27.662;2023-01-19T10:07:28;16.52;;;9.40;;
56911;SDS011;42800;53.928;27.662;2023-01-19T10:10:08;24.00;;;11.93;;
56911;SDS011;42800;53.928;27.662;2023-01-19T10:12:47;22.27;;;11.05;;
56911;SDS011;42800;53.928;27.662;2023-01-19T10:15:31;23.27;;;11.82;;
56911;SDS011;42800;53.928;27.662;2023-01-19T10:18:08;25.25;;;10.65;;
56911;SDS011;42800;53.928;27.662;2023-01-19T10:20:38;13.30;;;7.07;;
56911;SDS011;42800;53.928;27.662;2023-01-19T10:23:14;14.52;;;8.50;;
56911;SDS011;42800;53.928;27.662;2023-01-19T10:25:48;17.25;;;9.98;;
56911;SDS011;42800;53.928;27.662;2023-01-19T10:28:15;19.83;;;9.00;;
56911;SDS011;42800;53.928;27.662;2023-01-19T10:30:48;16.20;;;8.60;;
56911;SDS011;42800;53.928;27.662;2023-01-19T10:33:16;15.02;;;8.55;;
56911;SDS011;42800;53.928;27.662;2023-01-19T10:35:42;14.07;;;8.40;;
56911;SDS011;42800;53.928;27.662;2023-01-19T10:38:10;12.88;;;8.02;;
56911;SDS011;42800;53.928;27.662;2023-01-19T10:40:41;18.10;;;9.25;;
56911;SDS011;42800;53.928;27.662;2023-01-19T10:43:34;14.98;;;8.02;;
56911;SDS011;42800;53.928;27.662;2023-01-19T10:46:04;15.73;;;7.97;;
56911;SDS011;42800;53.928;27.662;2023-01-19T10:48:35;15.98;;;8.25;;
56911;SDS011;42800;53.928;27.662;2023-01-19T10:51:03;17.15;;;8.02;;
56911;SDS011;42800;53.928;27.662;2023-01-19T10:53:30;15.13;;;7.93;;
56911;SDS011;42800;53.928;27.662;2023-01-19T10:56:13;14.57;;;7.72;;
56911;SDS011;42800;53.928;27.662;2023-01-19T11:01:12;14.98;;;7.90;;
56911;SDS011;42800;53.928;27.662;2023-01-19T11:03:40;14.02;;;8.15;;
56911;SDS011;42800;53.928;27.662;2023-01-19T11:06:20;15.27;;;8.35;;
56911;SDS011;42800;53.928;27.662;2023-01-19T11:08:48;14.60;;;7.47;;
56911;SDS011;42800;53.928;27.662;2023-01-19T11:11:16;16.10;;;8.68;;
56911;SDS011;42800;53.928;27.662;2023-01-19T11:13:44;16.67;;;7.78;;
56911;SDS011;42800;53.928;27.662;2023-01-19T11:16:28;17.70;;;9.13;;
56911;SDS011;42800;53.928;27.662;2023-01-19T11:18:56;17.83;;;9.30;;
56911;SDS011;42800;53.928;27.662;2023-01-19T11:21:26;14.48;;;8.90;;
56911;SDS011;42800;53.928;27.662;2023-01-19T11:23:55;19.35;;;10.52;;
56911;SDS011;42800;53.928;27.662;2023-01-19T11:26:24;17.85;;;9.50;;
56911;SDS011;42800;53.928;27.662;2023-01-19T11:28:53;18.40;;;9.05;;
56911;SDS011;42800;53.928;27.662;2023-01-19T11:31:29;18.27;;;9.07;;
56911;SDS011;42800;53.928;27.662;2023-01-19T11:33:58;13.38;;;7.88;;
56911;SDS011;42800;53.928;27.662;2023-01-19T11:36:26;15.73;;;9.32;;
56911;SDS011;42800;53.928;27.662;2023-01-19T11:38:54;14.70;;;8.90;;
56911;SDS011;42800;53.928;27.662;2023-01-19T11:41:23;22.08;;;9.52;;
56911;SDS011;42800;53.928;27.662;2023-01-19T11:43:52;17.98;;;9.20;;
56911;SDS011;42800;53.928;27.662;2023-01-19T11:46:21;22.00;;;10.48;;
56911;SDS011;42800;53.928;27.662;2023-01-19T11:48:51;14.23;;;8.45;;
56911;SDS011;42800;53.928;27.662;2023-01-19T11:51:26;19.48;;;8.48;;
56911;SDS011;42800;53.928;27.662;2023-01-19T11:53:55;16.42;;;8.77;;
56911;SDS011;42800;53.928;27.662;2023-01-19T11:56:22;15.25;;;8.93;;
56911;SDS011;42800;53.928;27.662;2023-01-19T11:58:53;17.25;;;10.00;;
56911;SDS011;42800;53.928;27.662;2023-01-19T12:01:20;20.50;;;9.80;;
56911;SDS011;42800;53.928;27.662;2023-01-19T12:03:50;18.15;;;9.70;;
56911;SDS011;42800;53.928;27.662;2023-01-19T12:06:22;21.67;;;10.55;;
56911;SDS011;42800;53.928;27.662;2023-01-19T12:08:54;21.67;;;10.13;;
56911;SDS011;42800;53.928;27.662;2023-01-19T12:11:26;23.23;;;10.27;;
56911;SDS011;42800;53.928;27.662;2023-01-19T12:13:57;19.27;;;10.73;;
56911;SDS011;42800;53.928;27.662;2023-01-19T12:16:25;20.98;;;10.73;;
56911;SDS011;42800;53.928;27.662;2023-01-19T12:18:54;20.67;;;11.00;;
56911;SDS011;42800;53.928;27.662;2023-01-19T12:21:23;21.30;;;12.75;;
56911;SDS011;42800;53.928;27.662;2023-01-19T12:23:52;21.55;;;10.95;;
56911;SDS011;42800;53.928;27.662;2023-01-19T12:26:30;21.08;;;11.27;;
56911;SDS011;42800;53.928;27.662;2023-01-19T12:29:04;20.55;;;11.55;;
56911;SDS011;42800;53.928;27.662;2023-01-19T12:31:35;20.15;;;10.98;;
56911;SDS011;42800;53.928;27.662;2023-01-19T12:37:05;27.30;;;11.40;;
56911;SDS011;42800;53.928;27.662;2023-01-19T12:39:32;21.00;;;10.73;;
56911;SDS011;42800;53.928;27.662;2023-01-19T12:42:03;21.75;;;12.32;;
56911;SDS011;42800;53.928;27.662;2023-01-19T12:44:38;24.38;;;12.77;;
56911;SDS011;42800;53.928;27.662;2023-01-19T12:47:18;23.73;;;11.88;;
56911;SDS011;42800;53.928;27.662;2023-01-19T12:49:47;24.08;;;11.88;;
56911;SDS011;42800;53.928;27.662;2023-01-19T12:52:20;25.92;;;11.30;;
56911;SDS011;42800;53.928;27.662;2023-01-19T12:54:54;20.55;;;11.27;;
56911;SDS011;42800;53.928;27.662;2023-01-19T12:57:25;19.02;;;11.07;;
56911;SDS011;42800;53.928;27.662;2023-01-19T12:59:57;19.63;;;10.52;;
56911;SDS011;42800;53.928;27.662;2023-01-19T13:08:21;19.30;;;10.35;;
56911;SDS011;42800;53.928;27.662;2023-01-19T13:10:53;16.55;;;8.90;;
56911;SDS011;42800;53.928;27.662;2023-01-19T13:13:38;19.27;;;9.48;;
56911;SDS011;42800;53.928;27.662;2023-01-19T13:19:14;15.13;;;9.02;;
56911;SDS011;42800;53.928;27.662;2023-01-19T13:21:43;19.88;;;10.35;;
56911;SDS011;42800;53.928;27.662;2023-01-19T13:24:10;16.27;;;8.85;;
56911;SDS011;42800;53.928;27.662;2023-01-19T13:26:40;18.48;;;9.65;;
56911;SDS011;42800;53.928;27.662;2023-01-19T13:29:19;16.70;;;9.35;;
56911;SDS011;42800;53.928;27.662;2023-01-19T13:31:52;17.83;;;8.85;;
56911;SDS011;42800;53.928;27.662;2023-01-19T13:34:27;15.38;;;8.98;;
56911;SDS011;42800;53.928;27.662;2023-01-19T13:36:55;17.45;;;9.23;;
56911;SDS011;42800;53.928;27.662;2023-01-19T13:39:25;17.85;;;10.30;;
56911;SDS011;42800;53.928;27.662;2023-01-19T13:41:54;20.15;;;9.80;;
56911;SDS011;42800;53.928;27.662;2023-01-19T13:44:24;19.73;;;10.25;;
56911;SDS011;42800;53.928;27.662;2023-01-19T13:46:52;18.67;;;9.82;;
56911;SDS011;42800;53.928;27.662;2023-01-19T13:49:21;18.77;;;9.70;;
56911;SDS011;42800;53.928;27.662;2023-01-19T13:52:04;19.92;;;11.18;;
56911;SDS011;42800;53.928;27.662;2023-01-19T13:54:32;15.77;;;8.80;;
56911;SDS011;42800;53.928;27.662;2023-01-19T13:56:58;16.00;;;8.77;;
56911;SDS011;42800;53.928;27.662;2023-01-19T13:59:24;19.17;;;9.70;;
56911;SDS011;42800;53.928;27.662;2023-01-19T14:01:51;17.48;;;9.15;;
56911;SDS011;42800;53.928;27.662;2023-01-19T14:04:25;20.52;;;8.57;;
56911;SDS011;42800;53.928;27.662;2023-01-19T14:06:52;20.88;;;9.35;;
56911;SDS011;42800;53.928;27.662;2023-01-19T14:09:22;25.30;;;9.63;;
56911;SDS011;42800;53.928;27.662;2023-01-19T14:12:03;16.77;;;8.77;;
56911;SDS011;42800;53.928;27.662;2023-01-19T14:14:33;14.57;;;8.10;;
56911;SDS011;42800;53.928;27.662;2023-01-19T14:16:59;13.55;;;7.55;;
56911;SDS011;42800;53.928;27.662;2023-01-19T14:19:25;17.90;;;9.05;;
56911;SDS011;42800;53.928;27.662;2023-01-19T14:21:59;16.25;;;7.93;;
56911;SDS011;42800;53.928;27.662;2023-01-19T14:24:28;12.95;;;7.82;;
56911;SDS011;42800;53.928;27.662;2023-01-19T14:27:07;15.15;;;7.57;;
56911;SDS011;42800;53.928;27.662;2023-01-19T14:29:42;12.93;;;7.00;;
56911;SDS011;42800;53.928;27.662;2023-01-19T14:32:11;10.88;;;6.57;;
56911;SDS011;42800;53.928;27.662;2023-01-19T14:34:39;14.10;;;7.78;;
56911;SDS011;42800;53.928;27.662;2023-01-19T14:37:17;10.98;;;7.35;;
56911;SDS011;42800;53.928;27.662;2023-01-19T14:39:49;12.38;;;6.90;;
56911;SDS011;42800;53.928;27.662;2023-01-19T14:42:18;13.88;;;7.25;;
56911;SDS011;42800;53.928;27.662;2023-01-19T14:44:48;11.43;;;6.50;;
56911;SDS011;42800;53.928;27.662;2023-01-19T14:47:21;13.18;;;7.30;;
56911;SDS011;42800;53.928;27.662;2023-01-19T14:52:32;14.30;;;7.97;;
56911;SDS011;42800;53.928;27.662;2023-01-19T14:55:03;15.88;;;7.32;;
56911;SDS011;42800;53.928;27.662;2023-01-19T14:57:32;17.00;;;8.40;;
56911;SDS011;42800;53.928;27.662;2023-01-19T14:59:59;13.77;;;6.95;;
56911;SDS011;42800;53.928;27.662;2023-01-19T15:02:27;12.95;;;7.82;;